sensor_id;sensor_type;location;lat;lon;timestamp;P1;durP1;ratioP1;P2;durP2;ratioP2
22929;SDS011;11630;42.660;23.292;2023-01-01T00:01:27;120.07;;;72.70;;
22929;SDS011;11630;42.660;23.292;2023-01-01T00:03:58;121.87;;;73.30;;
22929;SDS011;11630;42.660;23.292;2023-01-01T00:06:29;111.93;;;65.67;;
22929;SDS011;11630;42.660;23.292;2023-01-01T00:09:00;122.90;;;74.43;;
22929;SDS011;11630;42.660;23.292;2023-01-01T00:11:48;121.17;;;66.13;;
22929;SDS011;11630;42.660;23.292;2023-01-01T00:14:18;111.73;;;64.40;;
22929;SDS011;11630;42.660;23.292;2023-01-01T00:16:49;98.13;;;56.97;;
22929;SDS011;11630;42.660;23.292;2023-01-01T00:19:24;77.97;;;48.70;;
22929;SDS011;11630;42.660;23.292;2023-01-01T00:21:55;96.27;;;56.97;;
22929;SDS011;11630;42.660;23.292;2023-01-01T00:24:28;101.50;;;60.57;;
22929;SDS011;11630;42.660;23.292;2023-01-01T00:26:59;97.73;;;60.27;;
22929;SDS011;11630;42.660;23.292;2023-01-01T00:29:30;100.90;;;58.20;;
22929;SDS011;11630;42.660;23.292;2023-01-01T00:32:02;83.27;;;52.17;;
22929;SDS011;11630;42.660;23.292;2023-01-01T00:34:33;86.33;;;52.97;;
22929;SDS011;11630;42.660;23.292;2023-01-01T00:37:04;86.27;;;50.30;;
22929;SDS011;11630;42.660;23.292;2023-01-01T00:39:35;90.87;;;50.57;;
22929;SDS011;11630;42.660;23.292;2023-01-01T00:42:06;85.73;;;48.30;;
22929;SDS011;11630;42.660;23.292;2023-01-01T00:44:37;81.37;;;46.77;;
22929;SDS011;11630;42.660;23.292;2023-01-01T00:47:08;90.10;;;53.03;;
22929;SDS011;11630;42.660;23.292;2023-01-01T00:49:39;80.87;;;46.37;;
22929;SDS011;11630;42.660;23.292;2023-01-01T00:52:10;77.13;;;50.13;;
22929;SDS011;11630;42.660;23.292;2023-01-01T00:54:41;78.87;;;45.63;;
22929;SDS011;11630;42.660;23.292;2023-01-01T00:57:12;83.20;;;46.80;;
22929;SDS011;11630;42.660;23.292;2023-01-01T00:59:44;67.67;;;40.00;;
22929;SDS011;11630;42.660;23.292;2023-01-01T01:02:15;55.53;;;33.23;;
22929;SDS011;11630;42.660;23.292;2023-01-01T01:04:45;48.73;;;32.03;;
22929;SDS011;11630;42.660;23.292;2023-01-01T01:07:16;57.07;;;35.57;;
22929;SDS011;11630;42.660;23.292;2023-01-01T01:09:47;60.03;;;37.00;;
22929;SDS011;11630;42.660;23.292;2023-01-01T01:12:18;85.57;;;47.10;;
22929;SDS011;11630;42.660;23.292;2023-01-01T01:14:48;87.00;;;48.23;;
22929;SDS011;11630;42.660;23.292;2023-01-01T01:17:18;71.10;;;42.03;;
22929;SDS011;11630;42.660;23.292;2023-01-01T01:19:49;78.07;;;45.60;;
22929;SDS011;11630;42.660;23.292;2023-01-01T01:22:19;65.10;;;39.43;;
22929;SDS011;11630;42.660;23.292;2023-01-01T01:24:50;71.93;;;43.57;;
22929;SDS011;11630;42.660;23.292;2023-01-01T01:27:24;78.87;;;45.73;;
22929;SDS011;11630;42.660;23.292;2023-01-01T01:29:55;76.47;;;45.30;;
22929;SDS011;11630;42.660;23.292;2023-01-01T01:32:25;87.00;;;49.23;;
22929;SDS011;11630;42.660;23.292;2023-01-01T01:35:00;94.43;;;51.03;;
22929;SDS011;11630;42.660;23.292;2023-01-01T01:37:29;88.90;;;49.03;;
22929;SDS011;11630;42.660;23.292;2023-01-01T01:39:59;80.60;;;49.07;;
22929;SDS011;11630;42.660;23.292;2023-01-01T01:42:30;79.57;;;49.20;;
22929;SDS011;11630;42.660;23.292;2023-01-01T01:45:02;81.53;;;48.30;;
22929;SDS011;11630;42.660;23.292;2023-01-01T01:47:49;90.87;;;53.03;;
22929;SDS011;11630;42.660;23.292;2023-01-01T01:50:31;97.63;;;56.90;;
22929;SDS011;11630;42.660;23.292;2023-01-01T01:55:47;81.07;;;51.37;;
22929;SDS011;11630;42.660;23.292;2023-01-01T01:58:18;80.97;;;49.30;;
22929;SDS011;11630;42.660;23.292;2023-01-01T02:00:50;84.43;;;49.33;;
22929;SDS011;11630;42.660;23.292;2023-01-01T02:03:22;86.80;;;51.07;;
22929;SDS011;11630;42.660;23.292;2023-01-01T02:05:53;91.50;;;52.63;;
22929;SDS011;11630;42.660;23.292;2023-01-01T02:08:24;83.97;;;51.87;;
22929;SDS011;11630;42.660;23.292;2023-01-01T02:10:56;106.60;;;53.20;;
22929;SDS011;11630;42.660;23.292;2023-01-01T02:13:27;86.20;;;50.97;;
22929;SDS011;11630;42.660;23.292;2023-01-01T02:15:59;91.10;;;52.20;;
22929;SDS011;11630;42.660;23.292;2023-01-01T02:18:56;97.23;;;56.70;;
22929;SDS011;11630;42.660;23.292;2023-01-01T02:21:53;122.13;;;64.77;;
22929;SDS011;11630;42.660;23.292;2023-01-01T02:24:33;119.40;;;62.80;;
22929;SDS011;11630;42.660;23.292;2023-01-01T02:32:23;91.63;;;52.17;;
22929;SDS011;11630;42.660;23.292;2023-01-01T02:35:25;93.57;;;51.73;;
22929;SDS011;11630;42.660;23.292;2023-01-01T02:38:05;87.07;;;52.47;;
22929;SDS011;11630;42.660;23.292;2023-01-01T02:40:40;87.50;;;50.10;;
22929;SDS011;11630;42.660;23.292;2023-01-01T02:43:11;82.43;;;47.63;;
22929;SDS011;11630;42.660;23.292;2023-01-01T02:45:42;81.47;;;47.57;;
22929;SDS011;11630;42.660;23.292;2023-01-01T02:51:03;80.80;;;46.57;;
22929;SDS011;11630;42.660;23.292;2023-01-01T02:53:35;79.23;;;47.23;;
22929;SDS011;11630;42.660;23.292;2023-01-01T02:58:46;78.57;;;47.67;;
22929;SDS011;11630;42.660;23.292;2023-01-01T03:01:33;77.67;;;47.40;;
22929;SDS011;11630;42.660;23.292;2023-01-01T03:04:24;83.30;;;48.97;;
22929;SDS011;11630;42.660;23.292;2023-01-01T03:07:05;80.47;;;47.37;;
22929;SDS011;11630;42.660;23.292;2023-01-01T03:09:46;77.90;;;49.27;;
22929;SDS011;11630;42.660;23.292;2023-01-01T03:12:31;79.57;;;46.20;;
22929;SDS011;11630;42.660;23.292;2023-01-01T03:15:10;73.50;;;44.73;;
22929;SDS011;11630;42.660;23.292;2023-01-01T03:17:50;75.00;;;44.67;;
22929;SDS011;11630;42.660;23.292;2023-01-01T03:20:18;84.70;;;47.10;;
22929;SDS011;11630;42.660;23.292;2023-01-01T03:22:49;81.30;;;47.40;;
22929;SDS011;11630;42.660;23.292;2023-01-01T03:25:25;87.20;;;49.20;;
22929;SDS011;11630;42.660;23.292;2023-01-01T03:27:59;78.63;;;45.63;;
22929;SDS011;11630;42.660;23.292;2023-01-01T03:30:33;85.00;;;48.10;;
22929;SDS011;11630;42.660;23.292;2023-01-01T03:33:12;90.33;;;50.80;;
22929;SDS011;11630;42.660;23.292;2023-01-01T03:35:45;100.47;;;56.40;;
22929;SDS011;11630;42.660;23.292;2023-01-01T03:38:38;91.97;;;52.67;;
22929;SDS011;11630;42.660;23.292;2023-01-01T03:41:14;94.03;;;55.37;;
22929;SDS011;11630;42.660;23.292;2023-01-01T03:43:58;100.80;;;58.53;;
22929;SDS011;11630;42.660;23.292;2023-01-01T03:46:22;100.73;;;57.67;;
22929;SDS011;11630;42.660;23.292;2023-01-01T03:48:55;91.73;;;53.67;;
22929;SDS011;11630;42.660;23.292;2023-01-01T03:54:13;103.00;;;55.17;;
22929;SDS011;11630;42.660;23.292;2023-01-01T03:56:58;112.43;;;64.37;;
22929;SDS011;11630;42.660;23.292;2023-01-01T03:59:23;116.23;;;67.40;;
22929;SDS011;11630;42.660;23.292;2023-01-01T04:01:56;122.00;;;68.43;;
22929;SDS011;11630;42.660;23.292;2023-01-01T04:04:25;120.83;;;67.10;;
22929;SDS011;11630;42.660;23.292;2023-01-01T04:06:56;112.07;;;67.13;;
22929;SDS011;11630;42.660;23.292;2023-01-01T04:09:29;109.47;;;63.40;;
22929;SDS011;11630;42.660;23.292;2023-01-01T04:11:59;100.67;;;61.20;;
22929;SDS011;11630;42.660;23.292;2023-01-01T04:14:33;108.27;;;60.27;;
22929;SDS011;11630;42.660;23.292;2023-01-01T04:17:07;103.67;;;61.77;;
22929;SDS011;11630;42.660;23.292;2023-01-01T04:19:39;114.00;;;64.13;;
22929;SDS011;11630;42.660;23.292;2023-01-01T04:22:10;111.07;;;64.33;;
22929;SDS011;11630;42.660;23.292;2023-01-01T04:24:41;110.77;;;63.93;;
22929;SDS011;11630;42.660;23.292;2023-01-01T04:27:13;107.90;;;65.60;;
22929;SDS011;11630;42.660;23.292;2023-01-01T04:29:43;108.37;;;63.03;;
22929;SDS011;11630;42.660;23.292;2023-01-01T04:32:14;106.47;;;63.03;;
22929;SDS011;11630;42.660;23.292;2023-01-01T04:34:45;107.60;;;64.27;;
22929;SDS011;11630;42.660;23.292;2023-01-01T04:37:16;104.93;;;63.57;;
22929;SDS011;11630;42.660;23.292;2023-01-01T04:39:47;114.27;;;64.27;;
22929;SDS011;11630;42.660;23.292;2023-01-01T04:42:18;106.00;;;59.77;;
22929;SDS011;11630;42.660;23.292;2023-01-01T04:44:49;92.97;;;56.23;;
22929;SDS011;11630;42.660;23.292;2023-01-01T04:47:20;104.17;;;58.83;;
22929;SDS011;11630;42.660;23.292;2023-01-01T04:49:55;94.20;;;53.03;;
22929;SDS011;11630;42.660;23.292;2023-01-01T04:52:26;91.47;;;54.17;;
22929;SDS011;11630;42.660;23.292;2023-01-01T04:54:57;86.07;;;53.23;;
22929;SDS011;11630;42.660;23.292;2023-01-01T04:57:28;86.70;;;50.60;;
22929;SDS011;11630;42.660;23.292;2023-01-01T05:00:00;105.73;;;56.37;;
22929;SDS011;11630;42.660;23.292;2023-01-01T05:02:31;92.07;;;54.10;;
22929;SDS011;11630;42.660;23.292;2023-01-01T05:05:04;83.67;;;51.80;;
22929;SDS011;11630;42.660;23.292;2023-01-01T05:07:36;94.23;;;51.17;;
22929;SDS011;11630;42.660;23.292;2023-01-01T05:10:07;86.80;;;51.70;;
22929;SDS011;11630;42.660;23.292;2023-01-01T05:12:38;86.53;;;51.97;;
22929;SDS011;11630;42.660;23.292;2023-01-01T05:15:09;92.90;;;55.80;;
22929;SDS011;11630;42.660;23.292;2023-01-01T05:17:40;94.60;;;55.00;;
22929;SDS011;11630;42.660;23.292;2023-01-01T05:20:11;84.43;;;48.43;;
22929;SDS011;11630;42.660;23.292;2023-01-01T05:22:42;84.27;;;50.07;;
22929;SDS011;11630;42.660;23.292;2023-01-01T05:25:14;94.80;;;52.47;;
22929;SDS011;11630;42.660;23.292;2023-01-01T05:27:45;93.10;;;54.40;;
22929;SDS011;11630;42.660;23.292;2023-01-01T05:30:15;94.13;;;54.77;;
22929;SDS011;11630;42.660;23.292;2023-01-01T05:32:46;101.10;;;57.20;;
22929;SDS011;11630;42.660;23.292;2023-01-01T05:35:16;98.70;;;58.70;;
22929;SDS011;11630;42.660;23.292;2023-01-01T05:37:47;83.50;;;51.23;;
22929;SDS011;11630;42.660;23.292;2023-01-01T05:40:18;86.87;;;51.97;;
22929;SDS011;11630;42.660;23.292;2023-01-01T05:42:49;85.70;;;50.27;;
22929;SDS011;11630;42.660;23.292;2023-01-01T05:45:19;84.77;;;46.17;;
22929;SDS011;11630;42.660;23.292;2023-01-01T05:47:51;82.83;;;45.80;;
22929;SDS011;11630;42.660;23.292;2023-01-01T05:50:22;95.50;;;54.57;;
22929;SDS011;11630;42.660;23.292;2023-01-01T05:52:53;96.97;;;55.27;;
22929;SDS011;11630;42.660;23.292;2023-01-01T05:55:24;79.13;;;47.63;;
22929;SDS011;11630;42.660;23.292;2023-01-01T05:57:54;74.63;;;47.47;;
22929;SDS011;11630;42.660;23.292;2023-01-01T06:00:25;84.23;;;49.37;;
22929;SDS011;11630;42.660;23.292;2023-01-01T06:02:55;69.90;;;45.50;;
22929;SDS011;11630;42.660;23.292;2023-01-01T06:05:26;79.23;;;43.97;;
22929;SDS011;11630;42.660;23.292;2023-01-01T06:07:57;75.50;;;43.90;;
22929;SDS011;11630;42.660;23.292;2023-01-01T06:10:30;81.17;;;44.83;;
22929;SDS011;11630;42.660;23.292;2023-01-01T06:13:01;74.73;;;44.83;;
22929;SDS011;11630;42.660;23.292;2023-01-01T06:15:33;68.77;;;38.80;;
22929;SDS011;11630;42.660;23.292;2023-01-01T06:18:04;67.23;;;40.10;;
22929;SDS011;11630;42.660;23.292;2023-01-01T06:20:35;80.37;;;43.13;;
22929;SDS011;11630;42.660;23.292;2023-01-01T06:23:06;70.13;;;42.50;;
22929;SDS011;11630;42.660;23.292;2023-01-01T06:25:37;74.47;;;42.50;;
22929;SDS011;11630;42.660;23.292;2023-01-01T06:28:08;78.20;;;43.57;;
22929;SDS011;11630;42.660;23.292;2023-01-01T06:30:38;70.97;;;43.07;;
22929;SDS011;11630;42.660;23.292;2023-01-01T06:33:07;69.17;;;42.30;;
22929;SDS011;11630;42.660;23.292;2023-01-01T06:35:42;64.47;;;39.27;;
22929;SDS011;11630;42.660;23.292;2023-01-01T06:38:13;73.80;;;41.33;;
22929;SDS011;11630;42.660;23.292;2023-01-01T06:40:53;69.20;;;42.90;;
22929;SDS011;11630;42.660;23.292;2023-01-01T06:43:25;71.13;;;41.73;;
22929;SDS011;11630;42.660;23.292;2023-01-01T06:46:07;73.43;;;44.03;;
22929;SDS011;11630;42.660;23.292;2023-01-01T06:48:39;74.17;;;43.43;;
22929;SDS011;11630;42.660;23.292;2023-01-01T06:51:11;68.27;;;43.70;;
22929;SDS011;11630;42.660;23.292;2023-01-01T06:53:43;79.57;;;45.97;;
22929;SDS011;11630;42.660;23.292;2023-01-01T06:56:15;74.57;;;45.47;;
22929;SDS011;11630;42.660;23.292;2023-01-01T06:58:47;85.80;;;49.50;;
22929;SDS011;11630;42.660;23.292;2023-01-01T07:01:19;90.70;;;53.37;;
22929;SDS011;11630;42.660;23.292;2023-01-01T07:03:51;82.37;;;52.60;;
22929;SDS011;11630;42.660;23.292;2023-01-01T07:06:26;81.80;;;49.57;;
22929;SDS011;11630;42.660;23.292;2023-01-01T07:08:59;88.20;;;55.83;;
22929;SDS011;11630;42.660;23.292;2023-01-01T07:11:33;100.20;;;61.50;;
22929;SDS011;11630;42.660;23.292;2023-01-01T07:14:05;111.20;;;68.20;;
22929;SDS011;11630;42.660;23.292;2023-01-01T07:16:36;117.50;;;69.10;;
22929;SDS011;11630;42.660;23.292;2023-01-01T07:19:07;117.60;;;72.03;;
22929;SDS011;11630;42.660;23.292;2023-01-01T07:21:42;165.40;;;97.30;;
22929;SDS011;11630;42.660;23.292;2023-01-01T07:24:14;153.67;;;92.20;;
22929;SDS011;11630;42.660;23.292;2023-01-01T07:26:45;172.77;;;106.23;;
22929;SDS011;11630;42.660;23.292;2023-01-01T07:29:16;166.00;;;102.53;;
22929;SDS011;11630;42.660;23.292;2023-01-01T07:31:47;176.50;;;102.43;;
22929;SDS011;11630;42.660;23.292;2023-01-01T07:34:18;164.93;;;101.97;;
22929;SDS011;11630;42.660;23.292;2023-01-01T07:36:51;165.40;;;100.70;;
22929;SDS011;11630;42.660;23.292;2023-01-01T07:39:22;157.23;;;95.27;;
22929;SDS011;11630;42.660;23.292;2023-01-01T07:41:53;153.93;;;90.13;;
22929;SDS011;11630;42.660;23.292;2023-01-01T07:44:24;149.07;;;86.33;;
22929;SDS011;11630;42.660;23.292;2023-01-01T07:47:03;143.70;;;89.77;;
22929;SDS011;11630;42.660;23.292;2023-01-01T07:49:35;146.13;;;89.73;;
22929;SDS011;11630;42.660;23.292;2023-01-01T07:52:05;138.97;;;86.17;;
22929;SDS011;11630;42.660;23.292;2023-01-01T07:54:35;144.30;;;84.83;;
22929;SDS011;11630;42.660;23.292;2023-01-01T07:57:07;134.23;;;83.00;;
22929;SDS011;11630;42.660;23.292;2023-01-01T07:59:37;141.53;;;85.47;;
22929;SDS011;11630;42.660;23.292;2023-01-01T08:02:08;148.13;;;90.90;;
22929;SDS011;11630;42.660;23.292;2023-01-01T08:04:40;158.17;;;93.03;;
22929;SDS011;11630;42.660;23.292;2023-01-01T08:07:11;162.13;;;97.67;;
22929;SDS011;11630;42.660;23.292;2023-01-01T08:09:42;160.80;;;95.03;;
22929;SDS011;11630;42.660;23.292;2023-01-01T08:12:13;170.63;;;97.87;;
22929;SDS011;11630;42.660;23.292;2023-01-01T08:14:43;156.40;;;96.83;;
22929;SDS011;11630;42.660;23.292;2023-01-01T08:17:15;143.90;;;93.27;;
22929;SDS011;11630;42.660;23.292;2023-01-01T08:19:45;151.23;;;92.20;;
22929;SDS011;11630;42.660;23.292;2023-01-01T08:22:16;145.47;;;93.57;;
22929;SDS011;11630;42.660;23.292;2023-01-01T08:24:47;143.80;;;88.97;;
22929;SDS011;11630;42.660;23.292;2023-01-01T08:27:18;147.07;;;88.70;;
22929;SDS011;11630;42.660;23.292;2023-01-01T08:29:49;145.17;;;90.60;;
22929;SDS011;11630;42.660;23.292;2023-01-01T08:32:20;143.23;;;89.17;;
22929;SDS011;11630;42.660;23.292;2023-01-01T08:34:51;148.03;;;89.27;;
22929;SDS011;11630;42.660;23.292;2023-01-01T08:37:22;149.07;;;90.00;;
22929;SDS011;11630;42.660;23.292;2023-01-01T08:39:53;140.97;;;91.23;;
22929;SDS011;11630;42.660;23.292;2023-01-01T08:42:24;145.60;;;91.23;;
22929;SDS011;11630;42.660;23.292;2023-01-01T08:44:54;145.43;;;90.80;;
22929;SDS011;11630;42.660;23.292;2023-01-01T08:47:25;147.90;;;94.67;;
22929;SDS011;11630;42.660;23.292;2023-01-01T08:49:56;142.80;;;92.97;;
22929;SDS011;11630;42.660;23.292;2023-01-01T08:52:27;147.30;;;91.63;;
22929;SDS011;11630;42.660;23.292;2023-01-01T08:54:59;142.40;;;87.53;;
22929;SDS011;11630;42.660;23.292;2023-01-01T08:57:30;139.53;;;88.27;;
22929;SDS011;11630;42.660;23.292;2023-01-01T09:00:04;133.70;;;83.03;;
22929;SDS011;11630;42.660;23.292;2023-01-01T09:02:35;130.47;;;76.77;;
22929;SDS011;11630;42.660;23.292;2023-01-01T09:05:06;112.10;;;69.60;;
22929;SDS011;11630;42.660;23.292;2023-01-01T09:07:37;97.93;;;63.57;;
22929;SDS011;11630;42.660;23.292;2023-01-01T09:10:08;112.47;;;67.47;;
22929;SDS011;11630;42.660;23.292;2023-01-01T09:12:39;116.47;;;75.77;;
22929;SDS011;11630;42.660;23.292;2023-01-01T09:15:14;130.53;;;82.57;;
22929;SDS011;11630;42.660;23.292;2023-01-01T09:17:45;122.83;;;79.33;;
22929;SDS011;11630;42.660;23.292;2023-01-01T09:20:16;124.87;;;75.00;;
22929;SDS011;11630;42.660;23.292;2023-01-01T09:22:46;120.60;;;78.47;;
22929;SDS011;11630;42.660;23.292;2023-01-01T09:25:17;113.93;;;72.87;;
22929;SDS011;11630;42.660;23.292;2023-01-01T09:27:48;116.40;;;72.20;;
22929;SDS011;11630;42.660;23.292;2023-01-01T09:30:19;127.23;;;78.90;;
22929;SDS011;11630;42.660;23.292;2023-01-01T09:32:50;119.87;;;77.30;;
22929;SDS011;11630;42.660;23.292;2023-01-01T09:35:21;128.90;;;78.90;;
22929;SDS011;11630;42.660;23.292;2023-01-01T09:37:52;114.73;;;72.63;;
22929;SDS011;11630;42.660;23.292;2023-01-01T09:40:35;108.90;;;66.60;;
22929;SDS011;11630;42.660;23.292;2023-01-01T09:43:17;103.67;;;65.90;;
22929;SDS011;11630;42.660;23.292;2023-01-01T09:48:29;109.27;;;66.43;;
22929;SDS011;11630;42.660;23.292;2023-01-01T09:51:02;105.53;;;63.97;;
22929;SDS011;11630;42.660;23.292;2023-01-01T09:53:36;108.77;;;68.03;;
22929;SDS011;11630;42.660;23.292;2023-01-01T09:56:16;108.87;;;70.07;;
22929;SDS011;11630;42.660;23.292;2023-01-01T09:58:46;114.53;;;70.60;;
22929;SDS011;11630;42.660;23.292;2023-01-01T10:13:43;151.20;;;90.60;;
22929;SDS011;11630;42.660;23.292;2023-01-01T10:18:58;151.17;;;91.70;;
22929;SDS011;11630;42.660;23.292;2023-01-01T10:21:30;161.47;;;97.80;;
22929;SDS011;11630;42.660;23.292;2023-01-01T10:24:03;158.47;;;101.23;;
22929;SDS011;11630;42.660;23.292;2023-01-01T10:26:33;154.00;;;93.43;;
22929;SDS011;11630;42.660;23.292;2023-01-01T10:29:13;157.43;;;98.63;;
22929;SDS011;11630;42.660;23.292;2023-01-01T10:31:52;162.17;;;93.67;;
22929;SDS011;11630;42.660;23.292;2023-01-01T10:34:27;156.70;;;96.50;;
22929;SDS011;11630;42.660;23.292;2023-01-01T10:36:58;154.00;;;96.23;;
22929;SDS011;11630;42.660;23.292;2023-01-01T10:39:30;146.10;;;94.10;;
22929;SDS011;11630;42.660;23.292;2023-01-01T10:42:01;149.63;;;90.67;;
22929;SDS011;11630;42.660;23.292;2023-01-01T10:44:33;149.50;;;97.07;;
22929;SDS011;11630;42.660;23.292;2023-01-01T10:47:26;141.93;;;86.97;;
22929;SDS011;11630;42.660;23.292;2023-01-01T10:50:01;148.50;;;90.80;;
22929;SDS011;11630;42.660;23.292;2023-01-01T10:52:16;139.03;;;88.30;;
22929;SDS011;11630;42.660;23.292;2023-01-01T10:54:48;137.40;;;90.30;;
22929;SDS011;11630;42.660;23.292;2023-01-01T10:57:35;133.37;;;85.00;;
22929;SDS011;11630;42.660;23.292;2023-01-01T11:03:30;118.43;;;78.97;;
22929;SDS011;11630;42.660;23.292;2023-01-01T11:05:59;131.83;;;80.47;;
22929;SDS011;11630;42.660;23.292;2023-01-01T11:08:34;122.57;;;77.40;;
22929;SDS011;11630;42.660;23.292;2023-01-01T11:11:05;126.70;;;78.53;;
22929;SDS011;11630;42.660;23.292;2023-01-01T11:13:37;127.33;;;82.67;;
22929;SDS011;11630;42.660;23.292;2023-01-01T11:16:11;125.67;;;78.70;;
22929;SDS011;11630;42.660;23.292;2023-01-01T11:18:42;123.43;;;77.23;;
22929;SDS011;11630;42.660;23.292;2023-01-01T11:21:18;136.80;;;76.27;;
22929;SDS011;11630;42.660;23.292;2023-01-01T11:24:07;128.87;;;76.93;;
22929;SDS011;11630;42.660;23.292;2023-01-01T11:26:23;115.47;;;72.63;;
22929;SDS011;11630;42.660;23.292;2023-01-01T11:28:58;116.40;;;71.77;;
22929;SDS011;11630;42.660;23.292;2023-01-01T11:31:33;117.33;;;70.87;;
22929;SDS011;11630;42.660;23.292;2023-01-01T11:37:17;107.93;;;67.03;;
22929;SDS011;11630;42.660;23.292;2023-01-01T11:39:56;99.77;;;64.40;;
22929;SDS011;11630;42.660;23.292;2023-01-01T11:42:33;109.70;;;65.73;;
22929;SDS011;11630;42.660;23.292;2023-01-01T11:47:37;108.73;;;67.53;;
22929;SDS011;11630;42.660;23.292;2023-01-01T11:50:17;94.40;;;58.40;;
22929;SDS011;11630;42.660;23.292;2023-01-01T11:52:54;93.77;;;59.83;;
22929;SDS011;11630;42.660;23.292;2023-01-01T11:55:36;95.87;;;61.43;;
22929;SDS011;11630;42.660;23.292;2023-01-01T12:00:54;80.43;;;50.47;;
22929;SDS011;11630;42.660;23.292;2023-01-01T12:03:38;87.53;;;52.37;;
22929;SDS011;11630;42.660;23.292;2023-01-01T12:08:59;81.00;;;51.37;;
22929;SDS011;11630;42.660;23.292;2023-01-01T12:11:43;85.47;;;51.20;;
22929;SDS011;11630;42.660;23.292;2023-01-01T12:14:38;78.37;;;48.17;;
22929;SDS011;11630;42.660;23.292;2023-01-01T12:17:19;78.13;;;48.80;;
22929;SDS011;11630;42.660;23.292;2023-01-01T12:20:02;72.53;;;47.03;;
22929;SDS011;11630;42.660;23.292;2023-01-01T12:22:32;78.37;;;47.70;;
22929;SDS011;11630;42.660;23.292;2023-01-01T12:25:02;70.27;;;45.63;;
22929;SDS011;11630;42.660;23.292;2023-01-01T12:30:19;77.60;;;46.53;;
22929;SDS011;11630;42.660;23.292;2023-01-01T12:41:31;77.37;;;45.13;;
22929;SDS011;11630;42.660;23.292;2023-01-01T12:50:20;77.27;;;46.97;;
22929;SDS011;11630;42.660;23.292;2023-01-01T12:58:15;70.90;;;44.43;;
22929;SDS011;11630;42.660;23.292;2023-01-01T13:00:54;75.20;;;44.47;;
22929;SDS011;11630;42.660;23.292;2023-01-01T13:03:37;76.20;;;46.20;;
22929;SDS011;11630;42.660;23.292;2023-01-01T13:06:03;79.10;;;46.43;;
22929;SDS011;11630;42.660;23.292;2023-01-01T13:08:35;71.97;;;44.10;;
22929;SDS011;11630;42.660;23.292;2023-01-01T13:11:06;65.27;;;42.57;;
22929;SDS011;11630;42.660;23.292;2023-01-01T13:13:37;70.60;;;43.40;;
22929;SDS011;11630;42.660;23.292;2023-01-01T13:16:10;65.83;;;42.77;;
22929;SDS011;11630;42.660;23.292;2023-01-01T13:18:40;64.13;;;40.30;;
22929;SDS011;11630;42.660;23.292;2023-01-01T13:21:20;68.77;;;40.10;;
22929;SDS011;11630;42.660;23.292;2023-01-01T13:23:48;58.77;;;39.50;;
22929;SDS011;11630;42.660;23.292;2023-01-01T13:42:40;53.93;;;35.70;;
22929;SDS011;11630;42.660;23.292;2023-01-01T13:45:38;61.90;;;35.33;;
22929;SDS011;11630;42.660;23.292;2023-01-01T14:02:13;46.90;;;31.27;;
22929;SDS011;11630;42.660;23.292;2023-01-01T14:04:55;53.53;;;32.13;;
22929;SDS011;11630;42.660;23.292;2023-01-01T14:10:21;53.23;;;28.37;;
22929;SDS011;11630;42.660;23.292;2023-01-01T14:15:52;34.57;;;21.43;;
22929;SDS011;11630;42.660;23.292;2023-01-01T14:18:31;34.77;;;19.63;;
22929;SDS011;11630;42.660;23.292;2023-01-01T14:21:13;45.80;;;21.63;;
22929;SDS011;11630;42.660;23.292;2023-01-01T14:23:42;38.17;;;21.07;;
22929;SDS011;11630;42.660;23.292;2023-01-01T14:26:15;42.87;;;18.23;;
22929;SDS011;11630;42.660;23.292;2023-01-01T14:28:54;34.77;;;18.67;;
22929;SDS011;11630;42.660;23.292;2023-01-01T14:31:29;38.60;;;19.90;;
22929;SDS011;11630;42.660;23.292;2023-01-01T14:34:14;34.03;;;21.50;;
22929;SDS011;11630;42.660;23.292;2023-01-01T14:36:52;38.33;;;23.47;;
22929;SDS011;11630;42.660;23.292;2023-01-01T14:39:22;39.60;;;23.90;;
22929;SDS011;11630;42.660;23.292;2023-01-01T14:41:54;43.63;;;24.10;;
22929;SDS011;11630;42.660;23.292;2023-01-01T14:44:27;38.93;;;23.93;;
22929;SDS011;11630;42.660;23.292;2023-01-01T14:47:01;36.23;;;23.17;;
22929;SDS011;11630;42.660;23.292;2023-01-01T14:49:33;47.33;;;24.13;;
22929;SDS011;11630;42.660;23.292;2023-01-01T14:52:11;36.70;;;23.27;;
22929;SDS011;11630;42.660;23.292;2023-01-01T14:54:52;39.40;;;22.93;;
22929;SDS011;11630;42.660;23.292;2023-01-01T14:57:24;37.57;;;22.37;;
22929;SDS011;11630;42.660;23.292;2023-01-01T14:59:56;36.00;;;22.10;;
22929;SDS011;11630;42.660;23.292;2023-01-01T15:02:28;34.50;;;21.27;;
22929;SDS011;11630;42.660;23.292;2023-01-01T15:05:14;42.30;;;22.30;;
22929;SDS011;11630;42.660;23.292;2023-01-01T15:07:53;32.47;;;19.33;;
22929;SDS011;11630;42.660;23.292;2023-01-01T15:10:28;28.10;;;18.47;;
22929;SDS011;11630;42.660;23.292;2023-01-01T15:13:03;39.23;;;22.07;;
22929;SDS011;11630;42.660;23.292;2023-01-01T15:15:37;36.77;;;20.93;;
22929;SDS011;11630;42.660;23.292;2023-01-01T15:24:10;36.37;;;20.10;;
22929;SDS011;11630;42.660;23.292;2023-01-01T15:26:48;37.07;;;20.37;;
22929;SDS011;11630;42.660;23.292;2023-01-01T15:29:28;31.87;;;18.80;;
22929;SDS011;11630;42.660;23.292;2023-01-01T15:32:01;31.90;;;19.27;;
22929;SDS011;11630;42.660;23.292;2023-01-01T15:34:48;33.43;;;18.90;;
22929;SDS011;11630;42.660;23.292;2023-01-01T15:40:28;31.50;;;19.93;;
22929;SDS011;11630;42.660;23.292;2023-01-01T15:42:45;38.33;;;20.47;;
22929;SDS011;11630;42.660;23.292;2023-01-01T15:45:35;36.30;;;19.43;;
22929;SDS011;11630;42.660;23.292;2023-01-01T15:48:16;33.23;;;19.20;;
22929;SDS011;11630;42.660;23.292;2023-01-01T15:53:24;45.63;;;20.07;;
22929;SDS011;11630;42.660;23.292;2023-01-01T15:56:01;37.17;;;20.20;;
22929;SDS011;11630;42.660;23.292;2023-01-01T16:01:10;44.30;;;23.33;;
22929;SDS011;11630;42.660;23.292;2023-01-01T16:03:41;46.53;;;21.67;;
22929;SDS011;11630;42.660;23.292;2023-01-01T16:06:14;35.87;;;20.27;;
22929;SDS011;11630;42.660;23.292;2023-01-01T16:08:46;33.03;;;20.40;;
22929;SDS011;11630;42.660;23.292;2023-01-01T16:11:19;40.90;;;19.80;;
22929;SDS011;11630;42.660;23.292;2023-01-01T16:13:50;31.87;;;20.80;;
22929;SDS011;11630;42.660;23.292;2023-01-01T16:18:53;35.53;;;20.43;;
22929;SDS011;11630;42.660;23.292;2023-01-01T16:21:25;38.33;;;23.00;;
22929;SDS011;11630;42.660;23.292;2023-01-01T16:23:56;29.57;;;19.07;;
22929;SDS011;11630;42.660;23.292;2023-01-01T16:26:27;35.73;;;20.73;;
22929;SDS011;11630;42.660;23.292;2023-01-01T16:28:58;32.97;;;20.07;;
22929;SDS011;11630;42.660;23.292;2023-01-01T16:31:29;36.07;;;22.07;;
22929;SDS011;11630;42.660;23.292;2023-01-01T16:33:59;37.93;;;20.43;;
22929;SDS011;11630;42.660;23.292;2023-01-01T16:36:30;40.13;;;20.63;;
22929;SDS011;11630;42.660;23.292;2023-01-01T16:39:01;31.00;;;21.80;;
22929;SDS011;11630;42.660;23.292;2023-01-01T16:41:35;46.40;;;21.83;;
22929;SDS011;11630;42.660;23.292;2023-01-01T16:44:13;37.53;;;22.27;;